• Join FlightAware (Why Join?)
  • Login
  • US Flag 
01:25AM EDT


 

Airport Tracker/Info


-or-


 

Live Flight TrackerFlight Track Log ✈ SWA1001 ✈ 30-Apr-2013 ✈ KLAX - KDEN

Flight Track Log - Related Links

Times and Time Zones

All times are in EDT time to prevent confusion due to time zone crossing. See the SWA1001 flight status page for this flight to view local times or setup timezone preferences in your user account.

Time Position Orientation Groundspeed Altitude Reporting Facility
EDT Latitude Longitude Course Direction KTS MPH feet Rate Location/Type
09:29AM 33.9500 -118.4500 253° West 178 205 1,500  Level Southern California TRACON
09:30AM 33.9447 -118.4706 253° West 191 220 2,200 2,520 Climbing Los Angeles Center
09:31AM 33.9056 -118.5353 234° Southwest 232 267 5,100 2,940 Climbing Los Angeles Center
09:32AM 33.8436 -118.5925 218° Southwest 279 321 8,300 3,120 Climbing Los Angeles Center
09:33AM 33.7675 -118.5575 159° South 309 356 11,500 3,120 Climbing Los Angeles Center
09:34AM 33.6936 -118.5036 149° Southeast 332 382 14,700 2,340 Climbing Los Angeles Center
09:35AM 33.6767 -118.3967 101° East 357 411 16,300 2,040 Climbing Los Angeles Center
09:36AM 33.7500 -118.2914 50° Northeast 397 457 19,000 2,640 Climbing Los Angeles Center
09:37AM 33.8222 -118.1817 52° Northeast 399 459 21,800 2,400 Climbing Los Angeles Center
09:38AM 33.8933 -118.0747 51° Northeast 408 470 23,900 2,040 Climbing Los Angeles Center
09:39AM 33.9708 -117.9664 49° Northeast 426 490 26,100 1,920 Climbing Los Angeles Center
09:40AM 34.0525 -117.8636 46° Northeast 427 491 27,900 1,620 Climbing Los Angeles Center
09:41AM 34.1350 -117.7572 47° Northeast 433 498 29,400 1,680 Climbing Los Angeles Center
09:42AM 34.2367 -117.6256 47° Northeast 447 514 31,400 1,680 Climbing Los Angeles Center
09:43AM 34.3214 -117.5178 46° Northeast 446 513 32,900 1,320 Climbing Los Angeles Center
09:44AM 34.3933 -117.4225 48° Northeast 445 512 34,200 1,440 Climbing Los Angeles Center
09:45AM 34.4942 -117.2919 47° Northeast 444 511 35,900 1,320 Climbing Los Angeles Center
09:46AM 34.5756 -117.1847 47° Northeast 438 504 37,000 480 Climbing Los Angeles Center
09:47AM 34.6589 -117.0756 47° Northeast 442 509 37,000  Level Los Angeles Center
09:48AM 34.7417 -116.9658 47° Northeast 443 510 37,000  Level Los Angeles Center
09:49AM 34.8233 -116.8556 48° Northeast 444 511 37,000  Level Los Angeles Center
09:50AM 34.9064 -116.7478 47° Northeast 441 507 37,000  Level Los Angeles Center
09:51AM 34.9878 -116.6378 48° Northeast 438 504 37,000  Level Los Angeles Center
09:52AM 35.0869 -116.5056 47° Northeast 441 507 37,000  Level Los Angeles Center
09:53AM 35.1717 -116.3956 47° Northeast 442 509 37,000  Level Los Angeles Center
09:54AM 35.2406 -116.3050 47° Northeast 450 518 37,000  Level Los Angeles Center
09:55AM 35.3367 -116.1725 48° Northeast 440 506 37,000  Level Los Angeles Center
09:56AM 35.4072 -116.0489 55° Northeast 445 512 37,000  Level Los Angeles Center
09:57AM 35.4625 -115.9133 63° Northeast 448 516 37,000  Level Los Angeles Center
09:58AM 35.5217 -115.7803 61° Northeast 443 510 37,000  Level Los Angeles Center
09:59AM 35.5881 -115.6172 63° Northeast 443 510 37,000  Level Los Angeles Center
10:00AM 35.6433 -115.4792 64° Northeast 449 517 37,000  Level Los Angeles Center
10:01AM 35.6975 -115.3397 64° Northeast 453 521 37,000  Level Los Angeles Center
10:02AM 35.7425 -115.2294 63° Northeast 453 521 37,000  Level Los Angeles Center
10:03AM 35.8081 -115.0636 64° Northeast 453 521 37,000  Level Los Angeles Center
10:04AM 35.8628 -114.9267 64° Northeast 451 519 37,000  Level Los Angeles Center
10:06AM 35.9289 -114.7633 63° Northeast 447 514 37,000  Level Los Angeles Center
10:07AM 35.9825 -114.6258 64° Northeast 447 514 37,000  Level Los Angeles Center
10:08AM 36.0367 -114.4864 64° Northeast 450 518 37,000  Level Los Angeles Center
10:09AM 36.0903 -114.3478 64° Northeast 450 518 37,000  Level Los Angeles Center
10:10AM 36.1450 -114.2067 64° Northeast 453 521 37,000  Level Los Angeles Center
10:11AM 36.1997 -114.0664 64° Northeast 454 522 37,000  Level Los Angeles Center
10:12AM 36.2539 -113.9253 65° Northeast 454 522 37,000  Level Los Angeles Center
10:13AM 36.3072 -113.7836 65° Northeast 454 522 37,000  Level Los Angeles Center
10:14AM 36.3731 -113.6136 64° Northeast 455 524 37,000  Level Los Angeles Center
10:15AM 36.4267 -113.4719 65° Northeast 456 525 37,000  Level Los Angeles Center
10:16AM 36.4817 -113.3283 64° Northeast 459 528 37,000  Level Los Angeles Center
10:17AM 36.5392 -113.1728 65° Northeast 461 531 37,000  Level Los Angeles Center
10:18AM 36.5936 -113.0297 65° Northeast 461 531 37,000  Level Los Angeles Center
10:19AM 36.6472 -112.8853 65° Northeast 461 531 37,000  Level Los Angeles Center
10:20AM 36.7011 -112.7411 65° Northeast 462 532 37,000  Level Los Angeles Center
10:21AM 36.7542 -112.5978 65° Northeast 460 529 37,000  Level Los Angeles Center
10:22AM 36.8072 -112.4539 65° Northeast 460 529 37,000  Level Los Angeles Center
10:23AM 36.8703 -112.2803 66° East 460 529 37,000  Level Los Angeles Center
10:24AM 36.9231 -112.1375 65° Northeast 457 526 37,000  Level Los Angeles Center
10:25AM 36.9750 -111.9928 66° East 458 527 37,000  Level Los Angeles Center
10:26AM 37.0278 -111.8475 65° Northeast 461 531 37,000  Level Los Angeles Center
10:27AM 37.0892 -111.6736 66° East 461 531 37,000  Level Denver Center
10:28AM 37.1411 -111.5292 66° East 459 528 37,000  Level Denver Center
10:30AM 37.1925 -111.3844 66° East 458 527 37,000  Level Denver Center
10:31AM 37.2631 -111.1831 66° East 452 520 37,000  Level Denver Center
10:32AM 37.3142 -111.0403 66° East 449 517 37,000  Level Denver Center
10:33AM 37.3628 -110.8972 67° East 449 517 37,000  Level Denver Center
10:34AM 37.4122 -110.7539 66° East 449 517 37,000  Level Denver Center
10:35AM 37.4636 -110.6103 66° East 451 519 37,000  Level Denver Center
10:36AM 37.5172 -110.4536 67° East 453 521 37,000  Level Denver Center
10:37AM 37.5722 -110.2914 67° East 452 520 37,000  Level Denver Center
10:38AM 37.6200 -110.1508 67° East 454 522 37,000  Level Denver Center
10:39AM 37.6681 -110.0108 67° East 455 524 37,000  Level Denver Center
10:40AM 37.7233 -109.8453 67° East 456 525 37,000  Level Denver Center
10:41AM 37.7700 -109.7036 67° East 455 524 37,000  Level Denver Center
10:42AM 37.8258 -109.5381 67° East 457 526 37,000  Level Denver Center
10:43AM 37.8731 -109.3961 67° East 457 526 37,000  Level Denver Center
10:44AM 37.9281 -109.2292 67° East 459 528 37,000  Level Denver Center
10:45AM 37.9750 -109.0864 67° East 459 528 37,000  Level Denver Center
10:46AM 38.0306 -108.9181 67° East 463 533 37,000  Level Denver Center
10:47AM 38.0758 -108.7733 68° East 468 539 37,000  Level Denver Center
10:48AM 38.1308 -108.6067 67° East 462 532 37,000  Level Denver Center
10:49AM 38.1764 -108.4636 68° East 460 529 37,000  Level Denver Center
10:50AM 38.2303 -108.2967 68° East 461 531 37,000  Level Denver Center
10:51AM 38.2758 -108.1531 68° East 459 528 37,000  Level Denver Center
10:52AM 38.3297 -107.9833 68° East 461 531 37,000  Level Denver Center
10:53AM 38.3747 -107.8400 68° East 459 528 37,000 -300 Level Denver Center
10:54AM 38.4281 -107.6678 68° East 468 539 36,400 -540 Descending Denver Center
10:55AM 38.4833 -107.5242 64° Northeast 470 541 36,000 -360 Descending Denver Center
10:56AM 38.5539 -107.3664 60° Northeast 463 533 35,700 -600 Descending Denver Center
10:57AM 38.6144 -107.2308 60° Northeast 461 531 34,800 -960 Descending Denver Center
10:58AM 38.6833 -107.0764 60° Northeast 464 534 33,800 -1,020 Descending Denver Center
10:59AM 38.7472 -106.9306 61° Northeast 471 542 32,800 -1,020 Descending Denver Center
11:01AM 38.8125 -106.7836 60° Northeast 476 548 31,800 -900 Descending Denver Center
11:02AM 38.8786 -106.6347 60° Northeast 480 552 31,000 -420 Descending Denver Center
11:03AM 38.9583 -106.4597 60° Northeast 482 555 31,000  Level Denver Center
11:04AM 39.0236 -106.3156 60° Northeast 485 558 31,000 -1,140 Level Denver Center
11:05AM 39.0928 -106.1597 60° Northeast 479 551 28,700 -2,400 Descending Denver Center
11:06AM 39.1603 -106.0128 59° Northeast 470 541 26,100 -2,760 Descending Denver Center
11:07AM 39.2231 -105.8694 60° Northeast 470 541 23,100 -2,820 Descending Denver Center
11:08AM 39.2861 -105.7292 60° Northeast 458 527 20,300 -2,100 Descending Denver Center
11:09AM 39.3450 -105.5972 60° Northeast 438 504 18,800 -1,620 Descending Denver Center
11:10AM 39.4050 -105.4600 60° Northeast 396 456 17,000 -1,020 Descending Denver Center
11:11AM 39.4622 -105.3558 55° Northeast 358 412 16,800 -840 Descending Denver Center
11:12AM 39.5208 -105.2419 56° Northeast 355 409 15,300 -960 Descending Denver Center
11:13AM 39.5719 -105.1478 55° Northeast 322 371 14,800 -840 Descending Denver Center
11:14AM 39.6514 -105.1306 North 277 319 13,600 -900 Descending Denver Center
11:15AM 39.7269 -105.1233 North 272 313 13,000 -780 Descending Denver Center
11:16AM 39.7978 -105.1006 14° North 272 313 12,000 -1,020 Descending Denver Center
11:17AM 39.8158 -104.9986 77° East 269 310 10,900 -1,020 Descending Denver Center
11:18AM 39.8503 -104.9300 57° Northeast 228 262 10,000 -1,380 Descending Denver Center
11:19AM 39.8425 -104.8717 100° East 167 192 8,100 -1,680 Descending Denver Center
11:20AM 39.8411 -104.8172 92° East 162 186 6,600 -1,140 Descending Denver Center
11:21AM 39.8411 -104.7556 90° East 160 184 5,800 -660 Descending Denver Center
11:22AM 39.8411 -104.7008 90° East 158 182 5,300 -540 Descending Denver Center
11:24AM 39.8617 -104.6732 North  Level Estimated
11:31AM 39.8617 -104.6732 180° South  Level Estimated
11:32AM 39.8617 -104.6732 180° South  Level Estimated
11:33AM 39.8617 -104.6732 180° South  Level Estimated